Aérodrome :
LOGIN :

S'inscrire | Disclaimer

   EN    FR    IT 

 










Légende :    VFR   VFR Marginal   IFR   IFR Intensif   IFR Très Intensif
Visi : 
Plafond : 
>= 8 km
>= 3000ft
5 à 8 km
1000 à 3000 ft
1500m à 5 km
500 à 1000 ft
800 à 1500m
200 à 500 ft
< 800m
< 200 ft
Symboles :   Orages  Brouillard  Fortes neiges  Fortes précipitations  Vent > 20 kt
SIGMETs :   Divers  Orages  Givrage  Turbulence  Onde Orograph.  Cendres Volcan.






- Altitude de l'aérodrome : 604 ft
- Code IATA : LCJ


EPLL - Lodz

DERNIER METAR :
  • 032030Z VRB01KT CAVOK M00/M07 Q1016

METARs EXPIRÉS :
  • 032000Z VRB01KT CAVOK 01/M06 Q1016
  • 031930Z VRB01KT CAVOK 02/M06 Q1015
  • 031900Z 23002KT CAVOK 03/M06 Q1015
  • 031830Z 24003KT CAVOK 04/M06 Q1014
  • 031800Z 28004KT CAVOK 06/M06 Q1014
  • 031730Z 28007KT CAVOK 07/M06 Q1014

TAF TAF EPLL
Valide du 03 à 18h jusqu'au 04 à 18h UTC


031730Z 0318/0418 27010KT CAVOK
BECMG 0321/0324 VRB02KT
TEMPO 0400/0406 4000 BR
PROB30
TEMPO 0401/0405 1200 BR
BECMG 0407/0410 27010KT
BECMG 0415/0418 VRB02KT



MET'MAP, la Météo Aéronautique d'un coup d'oeil ! - Copyright ORBIFLY Décembre 2007 - Disclaimer

ORBIFLY MET'MAP TEAM :

Programmation & Développement : Alexandra Zaïnal
Sur une idée originale de : Baudouin d'Aumeries
Assistance à la programmation : Marc-Olivier Méhu
Soutien technique & logistique : Manuel Goepfert

Contact : metmap@orbifly.com




SOURCES & CREDITS :

   NOAA